Time;durP1;ratioP1;P1;durP2;ratioP2;P2;SDS_P1;SDS_P2;PMS_P1;PMS_P2;Temp;Humidity;BMP_temperature;BMP_pressure;BME280_temperature;BME280_humidity;BME280_pressure;Samples;Min_cycle;Max_cycle;Signal;HPM_P1;HPM_P2
2022/04/03 00:01:42;;;;;;;11.50;10.30;;;0.60;99.90;;;;;;4960813;28;20455;-68
2022/04/03 00:04:32;;;;;;;10.90;9.80;;;0.60;99.90;;;;;;4961785;28;20873;-68
2022/04/03 00:07:20;;;;;;;11.30;9.50;;;0.70;99.90;;;;;;4962744;28;20482;-68
2022/04/03 00:10:09;;;;;;;10.57;9.47;;;0.70;99.90;;;;;;4966460;28;20645;-68
2022/04/03 00:12:58;;;;;;;11.40;10.20;;;0.70;99.90;;;;;;4966375;28;20462;-68
2022/04/03 00:15:46;;;;;;;10.67;9.40;;;0.70;99.90;;;;;;4959058;28;20573;-68
2022/04/03 00:18:36;;;;;;;11.30;10.10;;;0.70;99.90;;;;;;4960673;28;20482;-68
2022/04/03 00:21:27;;;;;;;11.20;9.57;;;0.60;99.90;;;;;;4960837;28;20609;-67
2022/04/03 00:24:17;;;;;;;11.40;10.20;;;0.60;99.90;;;;;;4963753;28;20521;-68
2022/04/03 00:27:05;;;;;;;12.80;9.87;;;0.60;99.90;;;;;;4958715;28;20462;-68
2022/04/03 00:29:54;;;;;;;12.07;9.53;;;0.60;99.90;;;;;;4964316;28;20625;-69
2022/04/03 00:32:42;;;;;;;12.13;10.50;;;0.60;99.90;;;;;;4967180;28;21006;-68
2022/04/03 00:35:30;;;;;;;10.87;9.50;;;0.60;99.90;;;;;;4977960;28;20518;-68
2022/04/03 00:38:19;;;;;;;10.07;9.00;;;0.60;99.90;;;;;;4980458;28;20547;-68
2022/04/03 00:41:09;;;;;;;10.03;9.13;;;0.50;99.90;;;;;;4978766;28;20462;-69
2022/04/03 00:43:58;;;;;;;11.50;10.13;;;0.50;99.90;;;;;;4978404;28;21562;-68
2022/04/03 00:46:47;;;;;;;13.70;8.90;;;0.60;99.90;;;;;;4980700;28;20503;-68
2022/04/03 00:49:36;;;;;;;11.30;9.83;;;0.60;99.90;;;;;;4984353;28;20473;-68
2022/04/03 00:52:25;;;;;;;10.70;9.60;;;0.60;99.90;;;;;;4979357;28;20997;-68
2022/04/03 00:55:15;;;;;;;11.40;10.20;;;0.50;99.90;;;;;;4982235;28;20449;-68
2022/04/03 00:58:03;;;;;;;11.53;10.33;;;0.50;99.90;;;;;;4980635;28;20458;-68
2022/04/03 01:00:51;;;;;;;10.93;9.87;;;0.50;99.90;;;;;;4981146;28;20457;-68
2022/04/03 01:03:39;;;;;;;11.30;9.60;;;0.50;99.90;;;;;;4980345;28;20580;-67
2022/04/03 01:06:28;;;;;;;10.33;9.33;;;0.60;99.90;;;;;;4980835;28;20818;-68
2022/04/03 01:09:16;;;;;;;10.80;9.23;;;0.60;99.90;;;;;;4987275;28;20998;-68
2022/04/03 01:12:06;;;;;;;11.13;9.97;;;0.60;99.90;;;;;;4982695;28;20600;-68
2022/04/03 01:14:54;;;;;;;10.23;9.33;;;0.60;99.90;;;;;;4982802;28;20442;-68
2022/04/03 01:17:43;;;;;;;10.83;9.17;;;0.60;99.90;;;;;;4982802;28;20475;-68
2022/04/03 01:20:31;;;;;;;10.17;9.00;;;0.60;99.90;;;;;;4985346;28;20526;-67
2022/04/03 01:23:19;;;;;;;9.90;9.00;;;0.60;99.90;;;;;;4984301;28;20566;-68
2022/04/03 01:26:09;;;;;;;10.00;8.97;;;0.60;99.90;;;;;;4981117;28;20616;-68
2022/04/03 01:28:57;;;;;;;9.53;8.63;;;0.50;99.90;;;;;;4985579;28;20620;-68
2022/04/03 01:31:46;;;;;;;10.20;9.13;;;0.60;99.90;;;;;;4983290;28;20473;-68
2022/04/03 01:34:34;;;;;;;12.57;9.00;;;0.50;99.90;;;;;;4991213;28;20471;-68
2022/04/03 01:37:23;;;;;;;10.07;9.07;;;0.50;99.90;;;;;;4987278;28;20448;-68
2022/04/03 01:40:12;;;;;;;10.33;9.20;;;0.50;99.90;;;;;;4987816;28;20472;-69
2022/04/03 01:43:01;;;;;;;10.37;9.23;;;0.50;99.90;;;;;;4981688;28;20536;-68
2022/04/03 01:45:49;;;;;;;10.37;9.20;;;0.50;99.90;;;;;;4982181;28;20548;-68
2022/04/03 01:48:37;;;;;;;9.90;8.90;;;0.50;99.90;;;;;;4989217;28;20631;-68
2022/04/03 01:51:25;;;;;;;11.90;9.07;;;0.40;99.90;;;;;;4985261;28;20893;-68
2022/04/03 01:54:14;;;;;;;10.87;9.67;;;0.40;99.90;;;;;;4982213;28;20540;-68
2022/04/03 01:57:02;;;;;;;11.03;9.90;;;0.40;99.90;;;;;;4979839;28;20563;-69
2022/04/03 01:59:51;;;;;;;9.90;9.00;;;0.40;99.90;;;;;;4987586;28;20568;-68
2022/04/03 02:02:40;;;;;;;10.97;9.07;;;0.30;99.90;;;;;;4986443;28;20548;-68
2022/04/03 02:05:28;;;;;;;10.53;9.47;;;0.30;99.90;;;;;;4981068;28;20452;-68
2022/04/03 02:08:17;;;;;;;10.53;9.53;;;0.30;99.90;;;;;;4985353;28;20588;-68
2022/04/03 02:11:05;;;;;;;11.40;10.20;;;0.20;99.90;;;;;;4984475;28;20479;-68
2022/04/03 02:13:53;;;;;;;9.80;8.80;;;0.20;99.90;;;;;;4987603;28;20461;-68
2022/04/03 02:16:43;;;;;;;11.03;9.87;;;0.20;99.90;;;;;;4984046;28;21745;-68
2022/04/03 02:19:31;;;;;;;10.63;9.53;;;0.10;99.90;;;;;;4985018;28;20482;-68
2022/04/03 02:22:20;;;;;;;11.57;9.97;;;0.10;99.90;;;;;;4986819;28;20464;-68
2022/04/03 02:25:11;;;;;;;9.97;8.97;;;0.10;99.90;;;;;;4983602;28;20449;-68
2022/04/03 02:28:00;;;;;;;10.60;9.50;;;0.10;99.90;;;;;;4981766;28;20462;-68
2022/04/03 02:30:48;;;;;;;13.83;9.40;;;0.00;99.90;;;;;;5034419;23;20567;-67
2022/04/03 02:33:38;;;;;;;10.40;9.30;;;0.00;99.90;;;;;;5021433;28;20480;-67
2022/04/03 02:36:26;;;;;;;10.40;8.93;;;0.00;99.90;;;;;;5027699;28;20452;-67
2022/04/03 02:39:14;;;;;;;11.67;9.97;;;0.00;99.90;;;;;;5026403;28;20932;-67
2022/04/03 02:42:04;;;;;;;11.77;10.67;;;-0.10;99.90;;;;;;5025315;28;20546;-67
2022/04/03 02:44:53;;;;;;;16.27;10.33;;;-0.10;99.90;;;;;;5023935;28;20452;-67
2022/04/03 02:47:47;;;;;;;10.47;9.33;;;-0.10;99.90;;;;;;5021496;28;20538;-67
2022/04/03 02:50:37;;;;;;;10.00;8.83;;;-0.10;99.90;;;;;;5028629;28;20471;-67
2022/04/03 02:53:25;;;;;;;14.80;8.97;;;-0.10;99.90;;;;;;5026812;28;20525;-67
2022/04/03 02:56:13;;;;;;;9.73;8.60;;;-0.10;99.90;;;;;;5022531;28;20448;-67
2022/04/03 02:59:02;;;;;;;9.80;8.80;;;-0.10;99.90;;;;;;5022441;28;20519;-67
2022/04/03 03:01:50;;;;;;;9.13;8.20;;;-0.10;99.90;;;;;;5027811;28;21042;-67
2022/04/03 03:04:39;;;;;;;9.97;8.00;;;-0.10;99.90;;;;;;5024737;28;20458;-67
2022/04/03 03:07:38;;;;;;;8.47;7.33;;;-0.10;99.90;;;;;;5027105;28;20452;-67
2022/04/03 03:10:26;;;;;;;8.63;7.73;;;-0.10;99.90;;;;;;5028158;28;20475;-68
2022/04/03 03:13:14;;;;;;;8.73;7.40;;;-0.10;99.90;;;;;;5026957;28;20506;-67
2022/04/03 03:16:02;;;;;;;8.27;7.47;;;-0.10;99.90;;;;;;5021060;28;20460;-67
2022/04/03 03:18:50;;;;;;;8.90;8.00;;;-0.10;99.90;;;;;;5016369;28;20497;-67
2022/04/03 03:21:38;;;;;;;8.83;7.93;;;-0.10;99.90;;;;;;5027454;28;20798;-67
2022/04/03 03:24:28;;;;;;;13.03;7.60;;;-0.20;99.90;;;;;;5024166;28;20466;-67
2022/04/03 03:27:16;;;;;;;8.20;7.27;;;-0.20;99.90;;;;;;5026241;28;20462;-67
2022/04/03 03:30:05;;;;;;;8.20;7.40;;;-0.20;99.90;;;;;;5023723;28;21110;-67
2022/04/03 03:32:54;;;;;;;8.13;7.30;;;-0.20;99.90;;;;;;5028434;28;20448;-67
2022/04/03 03:35:42;;;;;;;9.33;7.97;;;-0.20;99.90;;;;;;5028443;28;20459;-67
2022/04/03 03:38:30;;;;;;;8.73;7.17;;;-0.20;99.90;;;;;;5018345;28;20454;-66
2022/04/03 03:41:20;;;;;;;9.20;7.60;;;-0.20;99.90;;;;;;5020434;28;20459;-67
2022/04/03 03:44:10;;;;;;;8.97;8.03;;;-0.20;99.90;;;;;;5022045;28;20483;-67
2022/04/03 03:46:58;;;;;;;8.13;7.30;;;-0.20;99.90;;;;;;5021509;28;20607;-67
2022/04/03 03:49:46;;;;;;;7.60;6.80;;;-0.20;99.90;;;;;;5027512;28;20467;-67
2022/04/03 03:52:34;;;;;;;7.73;7.00;;;-0.10;99.90;;;;;;5020104;28;20689;-67
2022/04/03 03:55:24;;;;;;;8.63;7.53;;;-0.10;99.90;;;;;;5030328;28;20509;-66
2022/04/03 03:58:13;;;;;;;10.07;7.03;;;-0.10;99.90;;;;;;5022060;28;20481;-67
2022/04/03 04:01:02;;;;;;;6.73;6.03;;;-0.10;99.90;;;;;;5024478;28;20494;-67
2022/04/03 04:03:51;;;;;;;6.77;6.07;;;-0.10;99.90;;;;;;5022309;28;20452;-67
2022/04/03 04:06:39;;;;;;;7.77;6.20;;;-0.10;99.90;;;;;;5022903;28;20529;-67
2022/04/03 04:09:27;;;;;;;6.20;5.60;;;-0.10;99.90;;;;;;5017991;28;20508;-67
2022/04/03 04:12:16;;;;;;;10.23;6.23;;;-0.10;99.90;;;;;;5022648;28;20963;-66
2022/04/03 04:15:06;;;;;;;7.50;6.03;;;-0.10;99.90;;;;;;5028757;28;20510;-67
2022/04/03 04:17:56;;;;;;;7.57;6.17;;;-0.10;99.90;;;;;;5024908;28;20486;-70
2022/04/03 04:20:44;;;;;;;9.13;6.40;;;-0.10;99.90;;;;;;5028518;28;20520;-67
2022/04/03 04:23:32;;;;;;;6.70;6.00;;;-0.10;99.90;;;;;;5023896;28;20483;-67
2022/04/03 04:26:21;;;;;;;6.57;5.97;;;-0.10;99.90;;;;;;5022068;28;20456;-67
2022/04/03 04:29:09;;;;;;;7.27;6.67;;;-0.10;99.90;;;;;;5025748;28;20589;-67
2022/04/03 04:31:58;;;;;;;7.33;6.53;;;-0.10;99.90;;;;;;5026315;28;20494;-67
2022/04/03 04:34:46;;;;;;;9.20;6.30;;;-0.10;99.90;;;;;;5023815;28;20983;-66
2022/04/03 04:37:35;;;;;;;8.17;6.40;;;-0.10;99.90;;;;;;5030679;28;20459;-67
2022/04/03 04:40:23;;;;;;;7.47;6.50;;;-0.20;99.90;;;;;;5023959;28;21112;-67
2022/04/03 04:43:11;;;;;;;6.70;6.00;;;-0.10;99.90;;;;;;5029073;28;20501;-67
2022/04/03 04:45:59;;;;;;;7.40;6.60;;;-0.20;99.90;;;;;;5026381;28;21088;-67
2022/04/03 04:48:49;;;;;;;6.53;5.93;;;-0.10;99.90;;;;;;5022017;28;20488;-68
2022/04/03 04:51:38;;;;;;;12.13;6.60;;;-0.20;99.90;;;;;;5022950;28;20526;-67
2022/04/03 04:54:26;;;;;;;8.50;6.43;;;-0.20;99.90;;;;;;5020725;28;20471;-67
2022/04/03 04:57:15;;;;;;;7.87;5.90;;;-0.20;99.90;;;;;;5033989;28;20455;-70
2022/04/03 05:00:07;;;;;;;6.50;5.90;;;-0.20;99.90;;;;;;5027016;28;20471;-68
2022/04/03 05:02:55;;;;;;;7.37;6.20;;;-0.20;99.90;;;;;;5034318;28;20470;-68
2022/04/03 05:05:45;;;;;;;7.70;6.03;;;-0.20;99.90;;;;;;5029812;28;20493;-68
2022/04/03 05:08:34;;;;;;;7.03;6.43;;;-0.10;99.90;;;;;;5027635;28;20489;-68
2022/04/03 05:11:23;;;;;;;6.07;5.57;;;-0.10;99.90;;;;;;5027443;28;20450;-68
2022/04/03 05:14:11;;;;;;;7.90;6.00;;;-0.10;99.90;;;;;;5029318;28;20534;-68
2022/04/03 05:16:59;;;;;;;7.57;6.77;;;-0.10;99.90;;;;;;5021936;28;20809;-68
2022/04/03 05:19:47;;;;;;;8.23;6.33;;;-0.10;99.90;;;;;;5026550;28;20478;-68
2022/04/03 05:22:36;;;;;;;8.13;6.87;;;0.00;99.90;;;;;;5028023;28;20940;-67
2022/04/03 05:25:25;;;;;;;6.90;6.20;;;0.00;99.90;;;;;;5029265;28;20514;-68
2022/04/03 05:28:13;;;;;;;7.20;6.50;;;0.10;99.90;;;;;;5027649;28;20539;-67
2022/04/03 05:31:02;;;;;;;7.17;6.07;;;0.10;99.90;;;;;;5024878;28;20605;-68
2022/04/03 05:33:50;;;;;;;9.23;5.80;;;0.10;99.90;;;;;;5023904;28;20462;-68
2022/04/03 05:36:39;;;;;;;8.03;6.40;;;0.10;99.90;;;;;;5025890;28;20459;-69
2022/04/03 05:39:29;;;;;;;10.37;6.40;;;0.20;99.90;;;;;;5018220;28;20539;-67
2022/04/03 05:42:17;;;;;;;7.33;6.30;;;0.10;99.90;;;;;;5028233;28;20973;-68
2022/04/03 05:45:07;;;;;;;6.93;6.23;;;0.20;99.90;;;;;;5026880;28;21093;-68
2022/04/03 05:47:56;;;;;;;6.67;5.97;;;0.30;99.90;;;;;;5021933;28;20511;-67
2022/04/03 05:50:44;;;;;;;7.03;6.07;;;0.40;99.90;;;;;;5028326;28;20975;-67
2022/04/03 05:53:33;;;;;;;7.13;6.30;;;0.50;99.90;;;;;;5025580;28;20516;-68
2022/04/03 05:56:27;;;;;;;6.23;5.63;;;0.60;99.90;;;;;;5026530;28;20472;-68
2022/04/03 05:59:15;;;;;;;6.47;5.57;;;0.60;99.90;;;;;;5024204;28;20455;-68
2022/04/03 06:02:05;;;;;;;6.50;5.90;;;0.70;99.90;;;;;;5014758;28;20888;-68
2022/04/03 06:04:54;;;;;;;6.53;5.87;;;0.80;99.90;;;;;;5017995;28;20451;-68
2022/04/03 06:07:42;;;;;;;7.87;6.40;;;0.90;99.90;;;;;;5028290;28;20541;-68
2022/04/03 06:10:37;;;;;;;7.80;6.17;;;1.00;99.90;;;;;;5020767;28;20574;-68
2022/04/03 06:13:27;;;;;;;7.03;5.93;;;1.10;99.90;;;;;;5026347;28;20575;-68
2022/04/03 06:16:15;;;;;;;7.90;6.53;;;1.10;99.90;;;;;;5017963;28;20550;-69
2022/04/03 06:19:03;;;;;;;8.40;5.97;;;1.20;99.90;;;;;;5021111;28;20556;-68
2022/04/03 06:21:51;;;;;;;7.17;5.67;;;1.30;99.90;;;;;;5032572;28;20493;-69
2022/04/03 06:24:39;;;;;;;6.03;5.20;;;1.30;99.90;;;;;;5024679;28;20545;-68
2022/04/03 06:27:28;;;;;;;5.40;4.90;;;1.50;99.90;;;;;;5018729;28;20684;-68
2022/04/03 06:30:21;;;;;;;6.33;5.50;;;1.50;99.90;;;;;;5028691;28;20490;-68
2022/04/03 06:33:09;;;;;;;6.00;5.47;;;1.60;99.90;;;;;;5023318;28;20474;-68
2022/04/03 06:36:00;;;;;;;6.10;5.50;;;1.70;99.90;;;;;;5022610;28;20949;-68
2022/04/03 06:38:48;;;;;;;7.77;5.23;;;1.70;99.90;;;;;;5020091;28;20471;-68
2022/04/03 06:41:38;;;;;;;7.30;5.07;;;1.80;99.90;;;;;;5023963;28;20493;-68
2022/04/03 06:44:26;;;;;;;6.47;5.60;;;1.90;99.90;;;;;;5014897;28;20452;-68
2022/04/03 06:47:16;;;;;;;5.17;4.70;;;1.90;99.90;;;;;;5019808;28;20456;-68
2022/04/03 06:50:05;;;;;;;5.50;5.00;;;2.00;99.90;;;;;;5023550;28;20467;-68
2022/04/03 06:52:53;;;;;;;6.93;5.50;;;2.00;99.90;;;;;;5019797;28;20566;-70
2022/04/03 06:55:41;;;;;;;6.73;5.30;;;2.10;99.90;;;;;;5018845;28;20481;-69
2022/04/03 06:58:29;;;;;;;6.90;5.10;;;2.10;99.90;;;;;;5018898;28;20926;-71
2022/04/03 07:01:18;;;;;;;5.50;5.00;;;2.20;99.90;;;;;;5010316;28;20479;-67
2022/04/03 07:04:08;;;;;;;6.37;5.20;;;2.30;99.90;;;;;;5023443;28;20470;-68
2022/04/03 07:06:56;;;;;;;6.10;5.17;;;2.40;99.90;;;;;;5018026;28;20632;-68
2022/04/03 07:09:44;;;;;;;7.30;5.27;;;2.40;99.90;;;;;;5024180;28;20999;-68
2022/04/03 07:12:32;;;;;;;5.70;5.20;;;2.50;99.90;;;;;;5024596;28;21044;-67
2022/04/03 07:15:21;;;;;;;5.77;4.90;;;2.50;99.90;;;;;;5027720;28;20452;-67
2022/04/03 07:18:09;;;;;;;6.77;4.97;;;2.60;99.90;;;;;;5031441;28;20590;-68
2022/04/03 07:20:59;;;;;;;5.03;4.53;;;2.60;99.90;;;;;;5025384;28;20475;-67
2022/04/03 07:23:47;;;;;;;5.73;4.97;;;2.70;99.90;;;;;;5022413;28;20571;-67
2022/04/03 07:26:36;;;;;;;5.80;4.30;;;2.80;99.90;;;;;;5023961;28;20817;-67
2022/04/03 07:29:25;;;;;;;6.03;4.60;;;2.90;99.90;;;;;;5028094;28;20475;-67
2022/04/03 07:32:13;;;;;;;4.47;4.17;;;3.00;99.90;;;;;;5020951;28;20634;-67
2022/04/03 07:35:01;;;;;;;4.50;3.97;;;3.00;99.90;;;;;;5025750;28;20467;-67
2022/04/03 07:37:51;;;;;;;4.67;4.27;;;3.10;99.90;;;;;;5024962;28;20622;-68
2022/04/03 07:40:39;;;;;;;4.83;4.10;;;3.10;99.90;;;;;;5023637;28;20510;-67
2022/04/03 07:43:42;;;;;;;4.40;4.00;;;3.10;99.90;;;;;;5024723;28;20443;-67
2022/04/03 07:46:30;;;;;;;6.40;4.23;;;3.10;99.90;;;;;;5026332;28;20459;-68
2022/04/03 07:49:18;;;;;;;4.07;3.77;;;3.10;99.90;;;;;;5025121;28;20476;-68
2022/04/03 07:52:09;;;;;;;4.70;3.90;;;3.10;99.90;;;;;;5030371;28;20520;-67
2022/04/03 07:54:59;;;;;;;4.10;3.67;;;3.10;99.90;;;;;;5022883;28;20539;-68
2022/04/03 07:57:47;;;;;;;4.50;4.10;;;3.10;99.90;;;;;;5024127;28;20566;-67
2022/04/03 08:00:36;;;;;;;4.20;3.80;;;3.20;99.90;;;;;;5022878;28;20556;-68
2022/04/03 08:03:25;;;;;;;4.30;3.90;;;3.20;99.90;;;;;;5023469;28;20531;-67
2022/04/03 08:06:13;;;;;;;5.10;4.60;;;3.20;99.90;;;;;;5022776;28;20561;-67
2022/04/03 08:09:01;;;;;;;4.27;3.93;;;3.30;99.90;;;;;;5022938;28;20617;-68
2022/04/03 08:11:51;;;;;;;4.30;3.90;;;3.30;99.90;;;;;;5033173;28;20485;-68
2022/04/03 08:14:39;;;;;;;4.80;4.40;;;3.30;99.90;;;;;;5031085;28;20846;-70
2022/04/03 08:17:27;;;;;;;5.80;4.73;;;3.40;99.90;;;;;;5030537;28;20506;-68
2022/04/03 08:20:18;;;;;;;3.90;3.60;;;3.40;99.90;;;;;;5029408;28;20558;-68
2022/04/03 08:23:06;;;;;;;6.27;4.20;;;3.50;99.90;;;;;;5028149;28;20462;-68
2022/04/03 08:25:54;;;;;;;4.03;3.50;;;3.60;99.90;;;;;;5026103;28;20546;-67
2022/04/03 08:28:44;;;;;;;4.73;3.93;;;3.80;99.90;;;;;;5019296;28;20495;-67
2022/04/03 08:31:33;;;;;;;4.03;3.73;;;3.80;99.90;;;;;;5045138;22;20596;-67
2022/04/03 08:34:21;;;;;;;3.50;3.20;;;3.90;99.90;;;;;;5024439;28;20479;-66
2022/04/03 08:37:29;;;;;;;4.60;4.20;;;3.80;99.90;;;;;;5027862;28;20503;-66
2022/04/03 08:40:19;;;;;;;4.13;3.70;;;3.80;99.90;;;;;;5017244;28;20479;-66
2022/04/03 08:43:07;;;;;;;5.47;4.23;;;3.80;99.90;;;;;;5014516;28;20455;-65
2022/04/03 08:45:57;;;;;;;4.03;3.67;;;3.80;99.90;;;;;;5020321;28;20451;-66
2022/04/03 08:48:46;;;;;;;3.90;3.50;;;3.80;99.90;;;;;;5012561;28;20455;-66
2022/04/03 08:51:37;;;;;;;4.57;3.80;;;3.90;99.90;;;;;;5021264;28;20479;-66
2022/04/03 08:54:26;;;;;;;4.73;4.20;;;3.90;99.90;;;;;;5016954;28;20467;-66
2022/04/03 08:57:15;;;;;;;5.47;3.73;;;4.00;99.90;;;;;;5012864;28;20790;-66
2022/04/03 09:00:04;;;;;;;5.07;4.07;;;4.00;99.90;;;;;;5015335;28;20974;-66
2022/04/03 09:02:54;;;;;;;5.40;4.93;;;4.10;99.90;;;;;;5020848;28;20460;-66
2022/04/03 09:05:43;;;;;;;5.03;4.30;;;4.20;99.90;;;;;;5024054;28;20547;-66
2022/04/03 09:08:36;;;;;;;5.23;4.00;;;4.30;99.90;;;;;;5021365;28;20456;-66
2022/04/03 09:11:29;;;;;;;4.23;3.63;;;4.40;99.90;;;;;;5016421;28;20472;-65
2022/04/03 09:14:21;;;;;;;6.37;4.23;;;4.60;99.90;;;;;;5017991;28;20877;-65
2022/04/03 09:17:09;;;;;;;5.83;4.17;;;4.80;99.90;;;;;;5017054;28;20573;-66
2022/04/03 09:20:01;;;;;;;4.10;3.60;;;5.00;99.90;;;;;;5021328;28;20573;-66
2022/04/03 09:22:51;;;;;;;7.07;3.87;;;5.10;99.90;;;;;;5015730;28;20942;-66
2022/04/03 09:25:40;;;;;;;4.27;3.60;;;5.20;99.90;;;;;;5023305;28;20563;-66
2022/04/03 09:28:38;;;;;;;5.03;4.20;;;5.30;99.90;;;;;;5023432;28;20439;-66
2022/04/03 09:31:30;;;;;;;6.63;3.50;;;5.40;99.90;;;;;;5015478;28;20929;-67
2022/04/03 09:34:20;;;;;;;5.30;4.03;;;5.60;99.90;;;;;;5016269;28;20487;-69
2022/04/03 09:37:09;;;;;;;5.30;3.50;;;5.70;99.90;;;;;;5018250;28;20979;-67
2022/04/03 09:39:58;;;;;;;6.93;4.70;;;5.80;99.90;;;;;;5021703;28;20823;-66
2022/04/03 09:42:46;;;;;;;9.30;4.70;;;6.00;99.90;;;;;;5015638;28;20547;-66
2022/04/03 09:45:34;;;;;;;6.77;4.47;;;6.00;99.90;;;;;;5018656;28;20873;-65
2022/04/03 09:48:27;;;;;;;3.20;3.00;;;6.10;99.90;;;;;;5005991;28;20560;-67
2022/04/03 09:51:19;;;;;;;4.23;3.50;;;6.20;99.90;;;;;;5010294;28;20616;-67
2022/04/03 09:54:18;;;;;;;3.93;3.00;;;6.30;99.90;;;;;;5009663;28;20499;-67
2022/04/03 09:57:19;;;;;;;3.33;3.00;;;6.40;99.90;;;;;;5027571;28;20542;-67
2022/04/03 10:00:09;;;;;;;6.47;3.30;;;6.40;99.90;;;;;;5010881;28;20475;-67
2022/04/03 10:02:59;;;;;;;3.43;2.40;;;6.40;99.90;;;;;;5020952;28;20656;-67
2022/04/03 10:05:48;;;;;;;2.80;2.50;;;6.50;99.90;;;;;;5016156;28;20483;-67
2022/04/03 10:08:37;;;;;;;3.93;2.87;;;6.60;99.90;;;;;;5015176;28;20848;-67
2022/04/03 10:11:29;;;;;;;4.50;2.90;;;6.60;99.90;;;;;;5024098;28;20541;-67
2022/04/03 10:14:21;;;;;;;3.47;2.33;;;6.50;99.90;;;;;;5015897;28;20986;-67
2022/04/03 10:17:10;;;;;;;4.63;2.33;;;6.50;99.90;;;;;;5018153;28;20487;-67
2022/04/03 10:19:58;;;;;;;4.80;2.50;;;6.50;99.90;;;;;;5001468;28;20515;-67
2022/04/03 10:22:50;;;;;;;4.10;2.80;;;6.60;99.90;;;;;;5019806;28;20781;-67
2022/04/03 10:25:44;;;;;;;4.43;2.20;;;6.70;99.90;;;;;;5006409;28;20594;-67
2022/04/03 10:28:35;;;;;;;4.67;2.70;;;6.80;99.90;;;;;;5017100;28;21320;-67
2022/04/03 10:31:23;;;;;;;1.90;1.80;;;6.80;99.90;;;;;;5015669;28;20544;-66
2022/04/03 10:34:14;;;;;;;3.63;1.83;;;6.80;99.90;;;;;;5016222;28;20494;-67
2022/04/03 10:37:23;;;;;;;2.17;1.87;;;6.90;99.90;;;;;;5010884;28;20456;-67
2022/04/03 10:40:15;;;;;;;3.67;1.90;;;6.70;99.90;;;;;;5009931;28;21634;-67
2022/04/03 10:43:09;;;;;;;2.60;1.50;;;6.60;99.90;;;;;;5012214;28;20449;-67
2022/04/03 10:45:59;;;;;;;2.00;1.50;;;6.50;99.90;;;;;;5017833;28;20841;-67
2022/04/03 10:48:50;;;;;;;1.87;1.50;;;6.30;99.90;;;;;;5029600;28;20467;-67
2022/04/03 10:51:38;;;;;;;3.87;1.90;;;6.10;99.90;;;;;;5021353;28;20990;-67
2022/04/03 10:54:31;;;;;;;1.43;1.33;;;6.00;99.90;;;;;;5027284;28;20931;-67
2022/04/03 10:57:42;;;;;;;3.50;1.93;;;5.80;99.90;;;;;;5020823;28;20473;-67
2022/04/03 11:00:35;;;;;;;1.33;1.20;;;5.70;99.90;;;;;;5014628;28;20491;-67
2022/04/03 11:03:37;;;;;;;3.43;1.33;;;5.70;99.90;;;;;;5018157;28;20456;-67
2022/04/03 11:06:36;;;;;;;3.73;1.50;;;5.70;99.90;;;;;;5012429;28;20463;-67
2022/04/03 11:09:25;;;;;;;4.30;1.30;;;5.80;99.90;;;;;;5021417;28;20546;-67
2022/04/03 11:12:13;;;;;;;1.67;1.37;;;6.00;99.90;;;;;;5011414;28;20459;-67
2022/04/03 11:15:13;;;;;;;5.60;1.77;;;6.20;99.90;;;;;;5013689;28;20475;-67
2022/04/03 11:18:21;;;;;;;3.40;1.70;;;6.50;99.90;;;;;;5008380;28;20491;-68
2022/04/03 11:21:12;;;;;;;4.50;1.33;;;6.80;99.90;;;;;;5009790;28;20565;-67
2022/04/03 11:24:02;;;;;;;0.93;0.80;;;7.10;99.90;;;;;;5003605;28;20598;-66
2022/04/03 11:26:51;;;;;;;1.50;1.03;;;7.30;99.90;;;;;;5006179;28;20486;-66
2022/04/03 11:29:39;;;;;;;1.10;0.90;;;7.40;99.90;;;;;;4996727;28;20458;-66
2022/04/03 11:32:28;;;;;;;1.63;1.20;;;7.50;99.90;;;;;;5000055;28;20977;-65
2022/04/03 11:35:16;;;;;;;1.30;1.20;;;7.40;99.90;;;;;;4998577;28;20574;-66
2022/04/03 11:38:06;;;;;;;3.23;1.30;;;7.50;99.90;;;;;;5009769;28;20458;-66
2022/04/03 11:40:55;;;;;;;1.67;1.03;;;7.60;99.90;;;;;;5013936;28;20479;-66
2022/04/03 11:43:44;;;;;;;1.70;1.60;;;7.80;99.90;;;;;;5001999;28;20448;-65
2022/04/03 11:46:36;;;;;;;1.97;1.40;;;8.10;99.90;;;;;;4995669;28;20688;-65
2022/04/03 11:49:28;;;;;;;4.13;1.37;;;8.20;99.90;;;;;;5018930;28;20461;-66
2022/04/03 11:52:17;;;;;;;2.03;1.30;;;8.40;99.90;;;;;;5019090;28;20455;-65
2022/04/03 11:55:11;;;;;;;1.57;1.47;;;8.70;99.90;;;;;;5007680;28;20675;-64
2022/04/03 11:58:00;;;;;;;4.40;1.80;;;8.90;99.90;;;;;;5012672;28;20471;-65
2022/04/03 12:00:49;;;;;;;2.50;1.67;;;8.90;99.90;;;;;;5008320;28;20487;-66
2022/04/03 12:03:38;;;;;;;1.50;1.40;;;8.70;99.90;;;;;;5009698;28;20826;-66
2022/04/03 12:06:27;;;;;;;1.63;1.47;;;8.40;99.90;;;;;;5009099;28;20513;-66
2022/04/03 12:09:18;;;;;;;2.23;1.60;;;8.10;99.90;;;;;;5012261;28;20460;-66
2022/04/03 12:12:10;;;;;;;1.80;1.70;;;7.90;99.90;;;;;;5002750;28;20519;-65
2022/04/03 12:15:00;;;;;;;2.03;1.83;;;7.90;99.90;;;;;;5005495;28;20617;-65
2022/04/03 12:17:55;;;;;;;1.97;1.40;;;8.10;99.90;;;;;;5009144;28;20459;-65
2022/04/03 12:20:43;;;;;;;3.43;2.40;;;8.30;99.90;;;;;;5015293;28;20487;-65
2022/04/03 12:23:32;;;;;;;1.60;1.30;;;8.40;99.90;;;;;;5020991;28;20487;-65
2022/04/03 12:26:22;;;;;;;2.63;1.40;;;8.40;99.90;;;;;;5007493;28;20582;-65
2022/04/03 12:29:11;;;;;;;1.67;1.40;;;8.50;99.90;;;;;;5018849;28;20474;-65
2022/04/03 12:32:02;;;;;;;2.20;1.40;;;8.40;99.90;;;;;;5016263;28;20557;-65
2022/04/03 12:34:53;;;;;;;1.90;1.17;;;8.20;99.90;;;;;;5003821;28;20589;-65
2022/04/03 12:37:43;;;;;;;1.83;1.27;;;8.00;99.90;;;;;;5017430;28;20448;-66
2022/04/03 12:40:31;;;;;;;1.10;1.00;;;7.70;99.90;;;;;;5008558;28;20533;-65
2022/04/03 12:43:19;;;;;;;1.80;1.00;;;7.40;99.90;;;;;;5016014;28;21227;-66
2022/04/03 12:46:09;;;;;;;6.13;1.27;;;7.10;99.90;;;;;;5011267;28;20939;-65
2022/04/03 12:48:58;;;;;;;1.73;1.20;;;6.90;99.90;;;;;;5018479;28;20444;-65
2022/04/03 12:51:46;;;;;;;2.30;1.20;;;6.80;99.90;;;;;;5006961;28;20515;-66
2022/04/03 12:54:41;;;;;;;1.57;1.20;;;6.80;99.90;;;;;;5014936;28;20902;-66
2022/04/03 13:00:35;;;;;;;1.57;1.10;;;6.80;99.90;;;;;;5009581;28;20599;-66
2022/04/03 13:03:27;;;;;;;2.07;1.50;;;6.90;99.90;;;;;;5020861;28;20458;-66
2022/04/03 13:06:23;;;;;;;1.53;1.43;;;7.00;99.90;;;;;;5000905;28;20478;-66
2022/04/03 13:09:12;;;;;;;1.10;1.00;;;7.20;99.90;;;;;;5009554;28;20451;-66
2022/04/03 13:12:01;;;;;;;1.50;1.03;;;7.70;99.90;;;;;;4991874;28;20487;-66
2022/04/03 13:14:49;;;;;;;1.07;1.00;;;8.00;99.90;;;;;;5019109;28;20447;-65
2022/04/03 13:17:37;;;;;;;4.77;1.30;;;8.40;99.90;;;;;;4980569;28;20459;-66
2022/04/03 13:20:27;;;;;;;3.90;1.30;;;8.90;99.90;;;;;;5014887;28;20480;-72
2022/04/03 13:23:15;;;;;;;7.50;1.57;;;9.30;99.90;;;;;;5020846;28;20542;-72
2022/04/03 13:26:05;;;;;;;4.10;1.57;;;9.80;99.90;;;;;;5018268;28;20471;-71
2022/04/03 13:28:53;;;;;;;3.53;1.27;;;10.30;99.90;;;;;;5024579;28;20463;-72
2022/04/03 13:31:41;;;;;;;1.27;0.90;;;11.30;99.90;;;;;;5023553;28;20511;-72
2022/04/03 13:34:29;;;;;;;1.20;1.00;;;12.30;99.90;;;;;;5014526;28;20467;-71
2022/04/03 13:37:19;;;;;;;2.00;0.70;;;13.20;99.90;;;;;;5015499;28;20936;-72
2022/04/03 13:40:08;;;;;;;1.47;0.90;;;13.70;99.90;;;;;;5013444;28;20520;-71
2022/04/03 13:42:58;;;;;;;0.73;0.73;;;14.20;99.90;;;;;;5025543;28;20463;-70
2022/04/03 13:46:00;;;;;;;1.77;0.80;;;14.40;99.90;;;;;;5021024;28;20525;-71
2022/04/03 13:48:48;;;;;;;1.47;0.80;;;14.20;99.90;;;;;;5017371;28;20451;-70
2022/04/03 13:51:37;;;;;;;1.40;1.00;;;13.30;99.90;;;;;;5008638;28;20588;-71
2022/04/03 13:54:28;;;;;;;2.60;1.23;;;12.10;99.90;;;;;;5013137;28;20457;-71
2022/04/03 13:57:16;;;;;;;1.10;1.00;;;11.60;99.90;;;;;;5015328;28;20544;-71
2022/04/03 14:00:05;;;;;;;0.70;0.70;;;11.40;99.90;;;;;;5006945;28;20498;-70
2022/04/03 14:02:55;;;;;;;1.10;1.00;;;11.40;99.90;;;;;;5006041;28;20528;-69
2022/04/03 14:05:43;;;;;;;0.80;0.80;;;11.40;99.90;;;;;;5007152;28;20468;-71
2022/04/03 14:08:31;;;;;;;2.30;0.93;;;11.20;99.90;;;;;;5010519;28;20537;-70
2022/04/03 14:11:21;;;;;;;2.30;1.10;;;10.90;99.90;;;;;;5000287;28;20484;-71
2022/04/03 14:14:10;;;;;;;1.60;1.20;;;10.90;99.90;;;;;;5006838;28;21065;-71
2022/04/03 14:16:58;;;;;;;1.87;0.90;;;11.10;99.90;;;;;;5009892;28;20518;-70
2022/04/03 14:19:46;;;;;;;2.50;1.37;;;11.00;99.90;;;;;;4989130;28;20557;-72
2022/04/03 14:22:34;;;;;;;2.33;1.03;;;10.90;99.90;;;;;;5017346;28;20554;-72
2022/04/03 14:25:23;;;;;;;1.23;1.00;;;10.60;99.90;;;;;;5013541;28;20463;-71
2022/04/03 14:28:13;;;;;;;1.30;1.13;;;10.70;99.90;;;;;;5015459;28;20447;-71
2022/04/03 14:31:02;;;;;;;1.40;1.30;;;10.40;99.90;;;;;;5026880;23;20557;-72
2022/04/03 14:33:51;;;;;;;1.43;1.30;;;10.00;99.90;;;;;;5018017;28;20922;-70
2022/04/03 14:36:39;;;;;;;2.80;1.53;;;9.80;99.90;;;;;;5008255;28;20502;-70
2022/04/03 14:39:27;;;;;;;1.17;1.00;;;9.60;99.90;;;;;;5017653;28;20503;-71
2022/04/03 14:42:15;;;;;;;2.13;0.80;;;9.50;99.90;;;;;;5037998;28;20502;-71
2022/04/03 14:45:25;;;;;;;1.23;0.80;;;9.80;99.90;;;;;;5032162;28;20447;-71
2022/04/03 14:48:14;;;;;;;1.10;0.70;;;10.20;99.90;;;;;;5038085;28;20477;-72
2022/04/03 14:51:02;;;;;;;2.90;0.97;;;10.30;99.90;;;;;;5037593;28;20479;-71
2022/04/03 14:53:50;;;;;;;1.77;1.00;;;10.60;99.90;;;;;;5038183;28;20451;-72